createdAt,value
2023-11-30T00:01:36.586Z,68.75
2023-11-30T00:04:03.928Z,68.70
2023-11-30T00:06:37.151Z,68.60
2023-11-30T00:09:04.839Z,68.69
2023-11-30T00:11:34.827Z,68.56
2023-11-30T00:14:02.335Z,68.67
2023-11-30T00:16:30.205Z,68.58
2023-11-30T00:18:58.133Z,68.67
2023-11-30T00:21:25.844Z,68.75
2023-11-30T00:23:53.213Z,68.60
2023-11-30T00:26:20.941Z,68.63
2023-11-30T00:28:48.183Z,68.63
2023-11-30T00:31:15.168Z,68.73
2023-11-30T00:33:43.069Z,68.83
2023-11-30T00:36:10.770Z,68.76
2023-11-30T00:38:38.220Z,68.77
2023-11-30T00:41:05.967Z,68.85
2023-11-30T00:43:33.179Z,68.78
2023-11-30T00:46:07.131Z,68.70
2023-11-30T00:48:37.809Z,68.61
2023-11-30T00:51:05.364Z,68.65
2023-11-30T00:53:32.261Z,68.74
2023-11-30T00:56:00.941Z,68.73
2023-11-30T00:58:29.577Z,68.75
2023-11-30T01:00:57.147Z,68.78
2023-11-30T01:03:24.910Z,68.76
2023-11-30T01:05:52.943Z,68.71
2023-11-30T01:08:20.590Z,68.79
2023-11-30T01:10:48.589Z,68.76
2023-11-30T01:13:16.221Z,68.64
2023-11-30T01:15:45.435Z,68.69
2023-11-30T01:18:13.201Z,68.78
2023-11-30T01:20:40.799Z,68.74
2023-11-30T01:23:07.682Z,68.81
2023-11-30T01:25:35.741Z,68.86
2023-11-30T01:28:02.690Z,68.77
2023-11-30T01:30:30.294Z,68.74
2023-11-30T01:33:00.507Z,68.86
2023-11-30T01:35:30.497Z,68.72
2023-11-30T01:37:58.097Z,68.77
2023-11-30T01:40:25.712Z,68.77
2023-11-30T01:42:52.558Z,68.73
2023-11-30T01:45:20.125Z,68.64
2023-11-30T01:47:47.732Z,68.54
2023-11-30T01:50:17.967Z,68.57
2023-11-30T01:52:45.874Z,68.60
2023-11-30T01:55:13.924Z,68.65
2023-11-30T01:57:42.162Z,68.77
2023-11-30T02:00:11.427Z,68.66
2023-11-30T02:02:39.632Z,68.67
2023-11-30T02:05:08.252Z,68.68
2023-11-30T02:07:35.904Z,68.66
2023-11-30T02:10:04.195Z,68.68
2023-11-30T02:12:31.110Z,68.79
2023-11-30T02:15:00.827Z,68.80
2023-11-30T02:17:28.718Z,68.98
2023-11-30T02:19:56.259Z,68.81
2023-11-30T02:22:23.949Z,68.70
2023-11-30T02:24:51.574Z,68.71
2023-11-30T02:27:19.328Z,68.67
2023-11-30T02:29:46.791Z,68.71
2023-11-30T02:32:14.516Z,68.70
2023-11-30T02:34:42.122Z,68.65
2023-11-30T02:37:09.816Z,68.66
2023-11-30T02:39:38.848Z,68.69
2023-11-30T02:42:07.052Z,68.73
2023-11-30T02:44:34.382Z,68.60
2023-11-30T02:47:02.389Z,68.59
2023-11-30T02:49:30.098Z,68.67
2023-11-30T02:51:58.095Z,68.62
2023-11-30T02:54:25.260Z,68.54
2023-11-30T02:56:52.968Z,68.55
2023-11-30T02:59:20.607Z,68.58
2023-11-30T03:01:48.311Z,68.56
2023-11-30T03:04:16.249Z,68.59
2023-11-30T03:06:44.040Z,68.63
2023-11-30T03:09:12.311Z,68.53
2023-11-30T03:11:40.699Z,68.44
2023-11-30T03:14:07.933Z,68.52
2023-11-30T03:16:35.446Z,68.51
2023-11-30T03:19:14.374Z,68.52
2023-11-30T03:21:44.847Z,68.56
2023-11-30T03:24:12.945Z,68.56
2023-11-30T03:26:40.212Z,68.62
2023-11-30T03:29:07.835Z,68.58
2023-11-30T03:31:37.648Z,68.60
2023-11-30T03:34:06.549Z,68.57
2023-11-30T03:36:34.500Z,68.57
2023-11-30T03:39:02.322Z,68.50
2023-11-30T03:41:29.551Z,68.65
2023-11-30T03:43:56.903Z,68.62
2023-11-30T03:46:28.348Z,68.53
2023-11-30T03:48:57.001Z,68.52
2023-11-30T03:51:25.216Z,68.56
2023-11-30T03:53:52.860Z,68.56
2023-11-30T03:56:20.823Z,68.73
2023-11-30T03:58:47.659Z,68.62
2023-11-30T04:01:22.573Z,68.62
2023-11-30T04:03:50.647Z,68.60
2023-11-30T04:06:24.627Z,68.63
2023-11-30T04:08:53.944Z,68.66
2023-11-30T04:11:21.839Z,68.67
2023-11-30T04:13:49.744Z,68.61
2023-11-30T04:16:18.518Z,68.62
2023-11-30T04:18:46.145Z,68.65
2023-11-30T04:21:14.507Z,68.53
2023-11-30T04:23:41.731Z,68.54
2023-11-30T04:26:09.275Z,68.58
2023-11-30T04:28:37.233Z,68.57
2023-11-30T04:31:04.483Z,68.46
2023-11-30T04:33:32.421Z,68.51
2023-11-30T04:36:00.206Z,68.47
2023-11-30T04:38:27.935Z,68.56
2023-11-30T04:40:55.501Z,68.53
2023-11-30T04:43:26.701Z,68.51
2023-11-30T04:45:54.625Z,68.47
2023-11-30T04:48:22.122Z,68.48
2023-11-30T04:50:49.376Z,68.52
2023-11-30T04:53:16.605Z,68.49
2023-11-30T04:55:43.563Z,68.55
2023-11-30T04:58:13.430Z,68.54
2023-11-30T05:00:41.046Z,68.59
2023-11-30T05:03:08.601Z,68.59
2023-11-30T05:05:36.163Z,68.57
2023-11-30T05:08:04.899Z,68.54
2023-11-30T05:10:31.790Z,68.70
2023-11-30T05:12:59.563Z,68.66
2023-11-30T05:15:27.096Z,68.68
2023-11-30T05:17:55.082Z,68.67
2023-11-30T05:20:22.680Z,68.70
2023-11-30T05:22:51.620Z,68.79
2023-11-30T05:25:19.364Z,68.73
2023-11-30T05:27:47.278Z,68.71
2023-11-30T05:30:14.883Z,68.84
2023-11-30T05:32:43.178Z,68.91
2023-11-30T05:35:13.515Z,68.72
2023-11-30T05:37:41.697Z,68.79
2023-11-30T05:40:10.942Z,68.87
2023-11-30T05:42:38.214Z,68.84
2023-11-30T05:45:06.151Z,68.86
2023-11-30T05:47:33.906Z,68.83
2023-11-30T05:50:01.286Z,68.75
2023-11-30T05:52:28.398Z,68.75
2023-11-30T05:54:57.033Z,68.93
2023-11-30T05:57:25.311Z,68.99
2023-11-30T05:59:52.597Z,68.93
2023-11-30T06:02:22.256Z,68.91
2023-11-30T06:04:51.906Z,68.98
2023-11-30T06:07:19.795Z,68.98
2023-11-30T06:09:47.310Z,68.90
2023-11-30T06:12:14.696Z,68.85
2023-11-30T06:14:42.554Z,68.85
2023-11-30T06:17:10.169Z,68.83
2023-11-30T06:19:37.954Z,68.76
2023-11-30T06:22:05.657Z,68.84
2023-11-30T06:24:35.352Z,68.75
2023-11-30T06:27:04.164Z,68.74
2023-11-30T06:29:31.414Z,68.67
2023-11-30T06:32:02.268Z,68.70
2023-11-30T06:34:34.530Z,68.60
2023-11-30T06:37:01.785Z,68.58
2023-11-30T06:39:30.260Z,68.52
2023-11-30T06:41:57.887Z,68.53
2023-11-30T06:44:25.177Z,68.49
2023-11-30T06:46:52.764Z,68.53
2023-11-30T06:49:20.223Z,68.55
2023-11-30T06:51:47.358Z,68.49
2023-11-30T06:54:14.935Z,68.48
2023-11-30T06:56:42.161Z,68.45
2023-11-30T06:59:09.421Z,68.46
2023-11-30T07:01:38.016Z,68.44
2023-11-30T07:04:06.182Z,68.44
2023-11-30T07:06:33.759Z,68.45
2023-11-30T07:09:01.549Z,68.44
2023-11-30T07:11:29.094Z,68.49
2023-11-30T07:13:56.220Z,68.40
2023-11-30T07:16:23.448Z,68.42
2023-11-30T07:18:52.971Z,68.39
2023-11-30T07:21:19.976Z,68.32
2023-11-30T07:23:47.405Z,68.26
2023-11-30T07:26:15.609Z,68.28
2023-11-30T07:28:43.884Z,68.24
2023-11-30T07:31:21.755Z,68.26
2023-11-30T07:33:49.629Z,68.18
2023-11-30T07:36:17.290Z,68.12
2023-11-30T07:38:44.824Z,68.07
2023-11-30T07:41:12.972Z,68.17
2023-11-30T07:43:40.486Z,68.12
2023-11-30T07:46:08.148Z,68.08
2023-11-30T07:48:35.499Z,68.07
2023-11-30T07:51:03.106Z,68.05
2023-11-30T07:53:31.061Z,68.13
2023-11-30T07:55:58.584Z,68.04
2023-11-30T07:58:26.231Z,68.08
2023-11-30T08:00:54.222Z,68.08
2023-11-30T08:03:22.077Z,68.04
2023-11-30T08:05:49.107Z,67.94
2023-11-30T08:08:17.443Z,67.98
2023-11-30T08:10:44.896Z,67.89
2023-11-30T08:13:13.670Z,67.87
2023-11-30T08:15:41.039Z,67.81
2023-11-30T08:18:09.771Z,67.81
2023-11-30T08:20:36.835Z,67.80
2023-11-30T08:23:04.567Z,67.77
2023-11-30T08:25:31.955Z,67.68
2023-11-30T08:27:59.492Z,67.67
2023-11-30T08:30:27.525Z,67.63
2023-11-30T08:32:55.776Z,67.64
2023-11-30T08:35:23.281Z,67.65
2023-11-30T08:37:51.735Z,67.62
2023-11-30T08:40:19.381Z,67.63
2023-11-30T08:42:46.644Z,67.58
2023-11-30T08:45:13.814Z,67.57
2023-11-30T08:47:43.366Z,67.57
2023-11-30T08:50:11.322Z,67.53
2023-11-30T08:52:38.914Z,67.47
2023-11-30T08:55:06.281Z,67.43
2023-11-30T08:57:33.711Z,67.39
2023-11-30T09:00:01.150Z,67.41
2023-11-30T09:02:28.846Z,67.38
2023-11-30T09:04:56.173Z,67.36
2023-11-30T09:07:23.339Z,67.38
2023-11-30T09:09:54.113Z,67.37
2023-11-30T09:12:22.241Z,67.37
2023-11-30T09:14:50.900Z,67.37
2023-11-30T09:17:18.471Z,67.39
2023-11-30T09:19:45.761Z,67.40
2023-11-30T09:22:13.175Z,67.42
2023-11-30T09:24:40.581Z,67.45
2023-11-30T09:27:07.768Z,67.45
2023-11-30T09:29:40.030Z,67.52
2023-11-30T09:32:07.717Z,67.53
2023-11-30T09:34:34.957Z,67.55
2023-11-30T09:37:02.530Z,67.61
2023-11-30T09:39:30.126Z,67.63
2023-11-30T09:42:01.499Z,67.67
2023-11-30T09:44:28.948Z,67.70
2023-11-30T09:46:57.146Z,67.72
2023-11-30T09:49:25.207Z,67.71
2023-11-30T09:51:53.314Z,67.72
2023-11-30T09:54:21.436Z,67.68
2023-11-30T09:56:48.286Z,67.70
2023-11-30T09:59:15.580Z,67.67
2023-11-30T10:01:44.352Z,67.68
2023-11-30T10:04:14.598Z,67.70
2023-11-30T10:06:42.483Z,67.71
2023-11-30T10:09:14.630Z,67.72
2023-11-30T10:11:42.586Z,67.74
2023-11-30T10:14:11.148Z,67.75
2023-11-30T10:16:38.647Z,67.77
2023-11-30T10:19:08.268Z,67.73
2023-11-30T10:21:36.069Z,67.73
2023-11-30T10:24:03.634Z,67.74
2023-11-30T10:26:35.158Z,67.80
2023-11-30T10:29:08.148Z,67.79
2023-11-30T10:31:36.681Z,67.76
2023-11-30T10:34:09.127Z,67.74
2023-11-30T10:36:38.290Z,67.73
2023-11-30T10:39:19.872Z,67.73
2023-11-30T10:41:55.193Z,67.75
2023-11-30T10:44:28.928Z,67.76
2023-11-30T10:47:00.727Z,67.83
2023-11-30T10:49:30.522Z,67.89
2023-11-30T10:52:04.168Z,67.92
2023-11-30T10:54:36.806Z,67.89
2023-11-30T10:57:05.275Z,67.89
2023-11-30T10:59:33.506Z,67.90
2023-11-30T11:02:01.147Z,67.87
2023-11-30T11:04:29.749Z,67.90
2023-11-30T11:07:01.980Z,67.87
2023-11-30T11:09:42.729Z,67.87
2023-11-30T11:12:21.363Z,67.85
2023-11-30T11:14:52.744Z,67.85
2023-11-30T11:17:26.475Z,67.91
2023-11-30T11:19:54.132Z,67.92
2023-11-30T11:22:25.316Z,67.92
2023-11-30T11:25:02.747Z,67.94
2023-11-30T11:27:32.251Z,67.95
2023-11-30T11:30:03.208Z,67.89
2023-11-30T11:32:33.068Z,67.81
2023-11-30T11:35:01.283Z,67.79
2023-11-30T11:37:29.358Z,67.79
2023-11-30T11:39:58.382Z,67.79
2023-11-30T11:42:28.319Z,67.84
2023-11-30T11:44:55.822Z,67.92
2023-11-30T11:47:23.592Z,67.98
2023-11-30T11:49:50.752Z,67.99
2023-11-30T11:52:23.068Z,67.95
2023-11-30T11:55:24.050Z,67.88
2023-11-30T11:57:53.562Z,67.88
2023-11-30T12:00:23.209Z,67.90
2023-11-30T12:02:51.656Z,67.93
2023-11-30T12:05:23.572Z,67.95
2023-11-30T12:07:56.217Z,68.02
2023-11-30T12:10:40.995Z,68.00
2023-11-30T12:13:17.677Z,68.01
2023-11-30T12:15:47.005Z,68.03
2023-11-30T12:18:15.264Z,68.05
2023-11-30T12:20:44.118Z,68.10
2023-11-30T12:23:13.727Z,68.11
2023-11-30T12:25:41.253Z,68.19
2023-11-30T12:28:08.600Z,68.20
2023-11-30T12:30:35.476Z,68.28
2023-11-30T12:33:03.377Z,68.34
2023-11-30T12:35:30.829Z,68.36
2023-11-30T12:37:57.703Z,68.36
2023-11-30T12:40:25.292Z,68.34
2023-11-30T12:42:52.562Z,68.32
2023-11-30T12:45:21.595Z,68.30
2023-11-30T12:47:50.961Z,68.29
2023-11-30T12:50:18.400Z,68.28
2023-11-30T12:52:45.971Z,68.31
2023-11-30T12:55:14.818Z,68.32
2023-11-30T12:57:44.426Z,68.28
2023-11-30T13:00:16.112Z,68.31
2023-11-30T13:02:47.333Z,68.32
2023-11-30T13:05:15.299Z,68.43
2023-11-30T13:07:42.665Z,68.47
2023-11-30T13:10:13.268Z,68.60
2023-11-30T13:12:42.447Z,68.59
2023-11-30T13:15:13.213Z,68.59
2023-11-30T13:17:41.811Z,68.56
2023-11-30T13:20:12.874Z,68.63
2023-11-30T13:22:42.459Z,68.66
2023-11-30T13:25:11.349Z,68.67
2023-11-30T13:27:38.779Z,68.67
2023-11-30T13:30:06.888Z,68.64
2023-11-30T13:32:35.670Z,68.66
2023-11-30T13:35:03.931Z,68.67
2023-11-30T13:37:32.260Z,68.68
2023-11-30T13:39:59.330Z,68.77
2023-11-30T13:42:27.406Z,68.77
2023-11-30T13:44:55.351Z,68.79
2023-11-30T13:47:23.013Z,68.79
2023-11-30T13:49:50.409Z,68.76
2023-11-30T13:52:17.590Z,68.78
2023-11-30T13:54:46.273Z,68.74
2023-11-30T13:57:13.926Z,68.76
2023-11-30T13:59:41.332Z,68.85
2023-11-30T14:02:09.422Z,68.88
2023-11-30T14:04:36.990Z,68.85
2023-11-30T14:07:05.495Z,68.80
2023-11-30T14:09:33.704Z,68.78
2023-11-30T14:12:00.604Z,68.79
2023-11-30T14:14:27.836Z,68.86
2023-11-30T14:16:55.444Z,68.93
2023-11-30T14:19:23.495Z,68.96
2023-11-30T14:21:50.366Z,68.96
2023-11-30T14:24:17.260Z,69.02
2023-11-30T14:26:45.759Z,69.12
2023-11-30T14:29:14.278Z,69.02
2023-11-30T14:31:41.762Z,69.01
2023-11-30T14:34:09.079Z,69.08
2023-11-30T14:36:36.675Z,69.05
2023-11-30T14:39:05.448Z,69.03
2023-11-30T14:41:33.483Z,69.13
2023-11-30T14:44:01.163Z,69.09
2023-11-30T14:46:28.270Z,69.12
2023-11-30T14:48:56.895Z,69.17
2023-11-30T14:51:24.707Z,69.24
2023-11-30T14:53:51.792Z,69.10
2023-11-30T14:56:19.288Z,69.14
2023-11-30T14:58:47.152Z,69.17
2023-11-30T15:01:14.895Z,69.17
2023-11-30T15:03:42.883Z,69.08
2023-11-30T15:06:10.691Z,69.04
2023-11-30T15:08:37.575Z,69.07
2023-11-30T15:11:06.009Z,69.06
2023-11-30T15:13:34.171Z,69.08
2023-11-30T15:16:01.374Z,69.20
2023-11-30T15:18:29.383Z,69.19
2023-11-30T15:20:56.208Z,69.10
2023-11-30T15:23:23.584Z,69.11
2023-11-30T15:25:52.160Z,69.20
2023-11-30T15:28:21.143Z,69.16
2023-11-30T15:30:48.688Z,69.20
2023-11-30T15:33:15.593Z,69.22
2023-11-30T15:35:43.470Z,69.19
2023-11-30T15:38:10.900Z,69.22
2023-11-30T15:40:38.268Z,69.26
2023-11-30T15:43:06.697Z,69.20
2023-11-30T15:45:36.195Z,69.13
2023-11-30T15:48:05.129Z,69.12
2023-11-30T15:50:32.095Z,69.05
2023-11-30T15:52:59.502Z,69.08
2023-11-30T15:55:27.979Z,69.13
2023-11-30T15:57:55.619Z,69.18
2023-11-30T16:00:23.132Z,69.17
2023-11-30T16:02:50.848Z,68.98
2023-11-30T16:05:21.197Z,68.93
2023-11-30T16:07:49.019Z,68.93
2023-11-30T16:10:16.461Z,68.90
2023-11-30T16:12:44.199Z,68.87
2023-11-30T16:15:12.095Z,68.89
2023-11-30T16:17:40.616Z,68.90
2023-11-30T16:20:12.859Z,68.93
2023-11-30T16:22:42.015Z,68.90
2023-11-30T16:25:14.145Z,68.89
2023-11-30T16:27:45.594Z,68.86
2023-11-30T16:30:13.928Z,68.86
2023-11-30T16:32:41.391Z,68.87
2023-11-30T16:35:09.801Z,68.87
2023-11-30T16:37:37.527Z,68.88
2023-11-30T16:40:06.204Z,68.92
2023-11-30T16:42:33.433Z,68.93
2023-11-30T16:45:01.439Z,68.90
2023-11-30T16:47:29.161Z,68.91
2023-11-30T16:49:56.599Z,69.02
2023-11-30T16:52:23.970Z,69.03
2023-11-30T16:54:51.859Z,68.95
2023-11-30T16:57:18.961Z,69.04
2023-11-30T16:59:46.855Z,69.04
2023-11-30T17:02:14.167Z,69.09
2023-11-30T17:04:45.976Z,69.07
2023-11-30T17:07:13.243Z,69.06
2023-11-30T17:09:42.275Z,69.02
2023-11-30T17:12:12.756Z,69.00
2023-11-30T17:14:40.416Z,68.99
2023-11-30T17:17:09.663Z,69.08
2023-11-30T17:19:36.671Z,69.10
2023-11-30T17:22:04.371Z,69.01
2023-11-30T17:24:34.107Z,68.98
2023-11-30T17:27:01.381Z,68.98
2023-11-30T17:29:28.656Z,68.99
2023-11-30T17:31:55.909Z,68.91
2023-11-30T17:34:23.745Z,68.99
2023-11-30T17:36:52.710Z,69.03
2023-11-30T17:39:20.020Z,68.95
2023-11-30T17:41:47.047Z,68.94
2023-11-30T17:44:14.379Z,68.98
2023-11-30T17:46:45.228Z,69.07
2023-11-30T17:49:21.675Z,69.19
2023-11-30T17:51:49.314Z,69.34
2023-11-30T17:54:17.140Z,69.39
2023-11-30T17:56:44.769Z,69.40
2023-11-30T17:59:15.312Z,69.43
2023-11-30T18:01:42.939Z,69.57
2023-11-30T18:04:11.902Z,69.54
2023-11-30T18:06:39.359Z,69.42
2023-11-30T18:09:06.878Z,69.38
2023-11-30T18:11:33.866Z,69.42
2023-11-30T18:14:01.994Z,69.37
2023-11-30T18:16:29.133Z,69.52
2023-11-30T18:18:56.879Z,69.53
2023-11-30T18:21:26.484Z,69.52
2023-11-30T18:23:54.575Z,69.58
2023-11-30T18:26:24.340Z,69.56
2023-11-30T18:28:54.221Z,69.51
2023-11-30T18:31:23.025Z,69.54
2023-11-30T18:33:51.687Z,69.50
2023-11-30T18:36:19.342Z,69.62
2023-11-30T18:38:50.958Z,69.58
2023-11-30T18:41:21.690Z,69.71
2023-11-30T18:43:51.167Z,69.76
2023-11-30T18:46:19.642Z,69.67
2023-11-30T18:48:47.804Z,69.69
2023-11-30T18:51:16.155Z,69.70
2023-11-30T18:53:45.489Z,69.84
2023-11-30T18:56:13.820Z,69.81
2023-11-30T18:58:44.228Z,69.82
2023-11-30T19:01:12.414Z,69.85
2023-11-30T19:03:40.322Z,69.93
2023-11-30T19:06:15.979Z,70.00
2023-11-30T19:08:44.249Z,69.94
2023-11-30T19:11:17.616Z,70.00
2023-11-30T19:13:45.728Z,70.02
2023-11-30T19:16:23.844Z,69.93
2023-11-30T19:18:52.879Z,70.09
2023-11-30T19:21:21.143Z,70.10
2023-11-30T19:23:51.400Z,70.12
2023-11-30T19:26:20.017Z,70.05
2023-11-30T19:28:47.981Z,70.10
2023-11-30T19:31:15.216Z,70.10
2023-11-30T19:33:43.967Z,70.01
2023-11-30T19:36:12.576Z,70.06
2023-11-30T19:38:40.602Z,70.10
2023-11-30T19:41:08.820Z,70.09
2023-11-30T19:43:37.609Z,70.14
2023-11-30T19:46:05.806Z,70.16
2023-11-30T19:48:34.555Z,70.20
2023-11-30T19:51:03.066Z,70.22
2023-11-30T19:53:31.444Z,70.23
2023-11-30T19:56:00.272Z,70.30
2023-11-30T19:58:28.185Z,70.37
2023-11-30T20:00:56.214Z,70.42
2023-11-30T20:03:24.593Z,70.47
2023-11-30T20:05:53.054Z,70.47
2023-11-30T20:08:21.204Z,70.60
2023-11-30T20:10:52.080Z,70.57
2023-11-30T20:13:21.065Z,70.61
2023-11-30T20:15:49.079Z,70.58
2023-11-30T20:18:16.938Z,70.52
2023-11-30T20:20:45.067Z,70.56
2023-11-30T20:23:13.926Z,70.60
2023-11-30T20:25:41.733Z,70.69
2023-11-30T20:28:09.153Z,70.72
2023-11-30T20:30:37.711Z,70.79
2023-11-30T20:33:05.619Z,70.80
2023-11-30T20:35:34.187Z,70.80
2023-11-30T20:38:02.699Z,70.88
2023-11-30T20:40:30.721Z,70.80
2023-11-30T20:42:58.095Z,70.80
2023-11-30T20:45:26.301Z,70.88
2023-11-30T20:47:54.066Z,71.07
2023-11-30T20:50:21.576Z,71.10
2023-11-30T20:52:49.209Z,71.27
2023-11-30T20:55:17.029Z,71.10
2023-11-30T20:57:46.123Z,71.18
2023-11-30T21:00:13.753Z,71.21
2023-11-30T21:02:41.953Z,71.30
2023-11-30T21:05:09.676Z,71.27
2023-11-30T21:07:37.403Z,71.27
2023-11-30T21:10:05.114Z,71.31
2023-11-30T21:12:32.645Z,71.50
2023-11-30T21:15:00.503Z,71.39
2023-11-30T21:17:27.619Z,71.33
2023-11-30T21:19:55.404Z,71.48
2023-11-30T21:22:22.601Z,71.38
2023-11-30T21:24:49.535Z,71.52
2023-11-30T21:27:17.612Z,71.54
2023-11-30T21:29:44.929Z,71.52
2023-11-30T21:32:13.311Z,71.51
2023-11-30T21:34:41.541Z,71.50
2023-11-30T21:37:08.754Z,71.51
2023-11-30T21:39:36.282Z,71.46
2023-11-30T21:42:04.218Z,71.43
2023-11-30T21:44:31.682Z,71.34
2023-11-30T21:46:59.066Z,71.37
2023-11-30T21:49:26.980Z,71.35
2023-11-30T21:51:54.100Z,71.43
2023-11-30T21:54:21.306Z,71.41
2023-11-30T21:56:49.129Z,71.46
2023-11-30T21:59:17.593Z,71.51
2023-11-30T22:01:45.627Z,71.52
2023-11-30T22:04:13.107Z,71.46
2023-11-30T22:06:43.567Z,71.39
2023-11-30T22:09:11.288Z,71.46
2023-11-30T22:11:38.506Z,71.54
2023-11-30T22:14:05.893Z,71.60
2023-11-30T22:16:38.343Z,71.60
2023-11-30T22:19:06.579Z,71.53
2023-11-30T22:21:34.734Z,71.54
2023-11-30T22:24:02.011Z,71.51
2023-11-30T22:26:29.142Z,71.58
2023-11-30T22:28:57.780Z,71.67
2023-11-30T22:31:24.974Z,71.76
2023-11-30T22:33:52.225Z,71.73
2023-11-30T22:36:20.320Z,71.68
2023-11-30T22:38:47.218Z,71.66
2023-11-30T22:41:15.116Z,71.57
2023-11-30T22:43:42.635Z,71.56
2023-11-30T22:46:18.631Z,71.53
2023-11-30T22:48:47.169Z,71.51
2023-11-30T22:51:14.123Z,71.64
2023-11-30T22:53:41.441Z,71.60
2023-11-30T22:56:17.681Z,71.59
2023-11-30T22:58:45.576Z,71.55
2023-11-30T23:01:14.379Z,71.57
2023-11-30T23:03:42.189Z,71.56
2023-11-30T23:06:10.288Z,71.54
2023-11-30T23:08:37.760Z,71.56
2023-11-30T23:11:05.970Z,71.55
2023-11-30T23:13:33.433Z,71.64
2023-11-30T23:16:02.257Z,71.66
2023-11-30T23:18:31.889Z,71.60
2023-11-30T23:21:00.277Z,71.58
2023-11-30T23:23:27.968Z,71.57
2023-11-30T23:25:55.461Z,71.73
2023-11-30T23:28:22.632Z,71.72
2023-11-30T23:30:50.097Z,71.68
2023-11-30T23:33:17.990Z,71.73
2023-11-30T23:35:45.329Z,71.70
2023-11-30T23:38:12.886Z,71.68
2023-11-30T23:40:40.548Z,71.71
2023-11-30T23:43:07.957Z,71.69
2023-11-30T23:45:35.995Z,71.69
2023-11-30T23:48:03.271Z,71.63
2023-11-30T23:50:30.895Z,71.64
2023-11-30T23:52:58.094Z,71.70
2023-11-30T23:55:25.241Z,71.66
2023-11-30T23:57:53.116Z,71.66
